Terminal Aerodrome Forecast
Issued by NWS Quad Cities IA IL

Home | Current Version | Previous Version | Text Only | Print | Product List | Glossary On
Versions: 1 2 3 4 5 6 7 8 9 10 11 12 13 14 15 16 17 18 19 20 21 22 23 24
178
FTUS43 KDVN 250119 AAA
TAFDBQ
TAF AMD
KDBQ 250119Z 2501/2524 13014KT 2SM -RA BR OVC003 WS020/15045KT
     FM250500 22012KT 3SM -RA OVC008
     FM250600 25015G24KT P6SM OVC015
     FM250800 26019G30KT P6SM BKN025
     FM251100 26018G29KT P6SM SCT030 SCT250=

USA.gov is the U.S. government's official web portal to all federal, state and local government web resources and services.